createdAt,value
2019-05-23T00:01:00.909Z,8.83
2019-05-23T00:03:37.731Z,9.10
2019-05-23T00:06:11.081Z,8.40
2019-05-23T00:08:40.820Z,8.13
2019-05-23T00:11:29.345Z,8.03
2019-05-23T00:13:58.043Z,7.97
2019-05-23T00:16:28.272Z,9.53
2019-05-23T00:18:57.476Z,9.87
2019-05-23T00:21:27.341Z,7.97
2019-05-23T00:23:57.015Z,8.73
2019-05-23T00:26:26.328Z,8.30
2019-05-23T00:29:09.054Z,7.60
2019-05-23T00:31:33.615Z,8.77
2019-05-23T00:34:02.682Z,7.70
2019-05-23T00:36:32.346Z,7.43
2019-05-23T00:39:01.737Z,11.30
2019-05-23T00:41:31.526Z,8.80
2019-05-23T00:44:00.507Z,7.97
2019-05-23T00:46:29.935Z,9.17
2019-05-23T00:48:58.879Z,7.20
2019-05-23T00:51:27.800Z,9.23
2019-05-23T00:53:56.946Z,8.37
2019-05-23T00:56:26.348Z,8.90
2019-05-23T00:58:56.294Z,9.00
2019-05-23T01:01:25.613Z,9.77
2019-05-23T01:03:54.735Z,10.90
2019-05-23T01:06:23.660Z,8.67
2019-05-23T01:08:53.163Z,8.80
2019-05-23T01:11:24.249Z,8.93
2019-05-23T01:13:52.952Z,9.40
2019-05-23T01:16:21.885Z,9.77
2019-05-23T01:18:52.002Z,8.83
2019-05-23T01:21:39.372Z,9.73
2019-05-23T01:24:09.666Z,9.53
2019-05-23T01:26:38.365Z,9.07
2019-05-23T01:29:07.584Z,10.03
2019-05-23T01:31:37.870Z,11.67
2019-05-23T01:34:14.684Z,10.97
2019-05-23T01:36:43.620Z,10.23
2019-05-23T01:39:12.623Z,10.93
2019-05-23T01:41:42.447Z,10.67
2019-05-23T01:44:11.557Z,10.97
2019-05-23T01:46:41.674Z,10.83
2019-05-23T01:49:12.125Z,10.60
2019-05-23T01:51:40.629Z,11.33
2019-05-23T01:54:09.549Z,12.30
2019-05-23T01:56:38.452Z,13.53
2019-05-23T01:59:07.330Z,11.67
2019-05-23T02:01:37.453Z,11.00
2019-05-23T02:04:06.404Z,13.13
2019-05-23T02:06:34.868Z,10.87
2019-05-23T02:09:04.456Z,13.03
2019-05-23T02:11:33.687Z,11.40
2019-05-23T02:14:02.180Z,12.00
2019-05-23T02:16:31.651Z,15.10
2019-05-23T02:19:00.705Z,12.90
2019-05-23T02:21:30.099Z,13.13
2019-05-23T02:24:00.224Z,11.77
2019-05-23T02:26:28.995Z,12.07
2019-05-23T02:28:57.565Z,12.97
2019-05-23T02:31:26.167Z,13.93
2019-05-23T02:33:55.644Z,15.03
2019-05-23T02:36:24.452Z,15.77
2019-05-23T02:38:54.633Z,14.93
2019-05-23T02:41:28.246Z,16.67
2019-05-23T02:43:58.392Z,15.77
2019-05-23T02:46:31.744Z,14.73
2019-05-23T02:49:04.384Z,16.20
2019-05-23T02:51:37.145Z,15.30
2019-05-23T02:54:10.399Z,16.00
2019-05-23T02:56:39.999Z,18.07
2019-05-23T02:59:36.486Z,16.40
2019-05-23T03:02:30.641Z,18.43
2019-05-23T03:05:00.054Z,17.63
2019-05-23T03:07:33.067Z,19.87
2019-05-23T03:10:02.470Z,19.47
2019-05-23T03:12:31.496Z,18.33
2019-05-23T03:15:02.766Z,18.73
2019-05-23T03:17:34.580Z,22.43
2019-05-23T03:20:05.964Z,21.67
2019-05-23T03:23:00.105Z,19.50
2019-05-23T03:25:39.488Z,25.53
2019-05-23T03:28:10.064Z,21.70
2019-05-23T03:30:49.214Z,21.87
2019-05-23T03:33:17.736Z,22.00
2019-05-23T03:35:59.584Z,22.27
2019-05-23T03:38:28.471Z,23.47
2019-05-23T03:40:57.022Z,23.70
2019-05-23T03:43:26.558Z,26.03
2019-05-23T03:45:58.203Z,23.07
2019-05-23T03:48:27.240Z,24.90
2019-05-23T03:50:57.870Z,25.97
2019-05-23T03:53:28.158Z,27.70
2019-05-23T03:55:58.780Z,26.87
2019-05-23T03:58:29.572Z,24.90
2019-05-23T04:00:59.727Z,27.40
2019-05-23T04:03:29.729Z,28.20
2019-05-23T04:05:58.960Z,26.77
2019-05-23T04:08:28.180Z,26.00
2019-05-23T04:10:57.599Z,30.33
2019-05-23T04:13:26.326Z,27.13
2019-05-23T04:15:54.955Z,30.53
2019-05-23T04:18:23.977Z,27.37
2019-05-23T04:20:53.540Z,28.60
2019-05-23T04:23:22.110Z,26.80
2019-05-23T04:25:50.724Z,24.17
2019-05-23T04:28:19.423Z,27.60
2019-05-23T04:30:48.145Z,25.43
2019-05-23T04:33:17.472Z,28.03
2019-05-23T04:35:46.778Z,26.80
2019-05-23T04:38:15.937Z,30.40
2019-05-23T04:40:44.481Z,28.67
2019-05-23T04:43:12.980Z,29.37
2019-05-23T04:45:42.306Z,30.00
2019-05-23T04:48:11.698Z,31.13
2019-05-23T04:50:40.894Z,33.03
2019-05-23T04:53:09.675Z,30.80
2019-05-23T04:55:39.494Z,30.70
2019-05-23T04:58:08.084Z,34.57
2019-05-23T05:00:36.666Z,29.60
2019-05-23T05:03:06.503Z,29.33
2019-05-23T05:05:35.731Z,28.97
2019-05-23T05:08:04.546Z,33.47
2019-05-23T05:10:34.697Z,31.33
2019-05-23T05:13:03.804Z,33.80
2019-05-23T05:15:32.878Z,26.83
2019-05-23T05:18:01.509Z,30.23
2019-05-23T05:20:30.071Z,30.57
2019-05-23T05:22:59.002Z,25.60
2019-05-23T05:25:28.180Z,27.17
2019-05-23T05:27:56.908Z,40.57
2019-05-23T05:30:25.406Z,38.87
2019-05-23T05:32:54.246Z,26.27
2019-05-23T05:35:22.879Z,29.83
2019-05-23T05:37:51.515Z,26.40
2019-05-23T05:40:22.585Z,24.53
2019-05-23T05:42:51.580Z,158.67
2019-05-23T05:45:20.271Z,39.17
2019-05-23T05:47:48.770Z,28.90
2019-05-23T05:50:17.695Z,51.83
2019-05-23T05:52:46.312Z,96.47
2019-05-23T05:55:15.736Z,56.60
2019-05-23T05:57:44.288Z,25.33
2019-05-23T06:00:29.636Z,22.47
2019-05-23T06:03:05.227Z,21.77
2019-05-23T06:05:48.226Z,24.43
2019-05-23T06:08:18.594Z,23.17
2019-05-23T06:10:47.245Z,20.60
2019-05-23T06:13:16.063Z,20.57
2019-05-23T06:15:44.955Z,24.57
2019-05-23T06:18:14.132Z,22.40
2019-05-23T06:20:44.975Z,25.50
2019-05-23T06:23:13.622Z,19.77
2019-05-23T06:25:42.249Z,19.43
2019-05-23T06:28:13.019Z,20.50
2019-05-23T06:30:42.173Z,24.90
2019-05-23T06:33:22.633Z,30.63
2019-05-23T06:35:41.213Z,22.00
2019-05-23T06:38:10.107Z,28.63
2019-05-23T06:40:39.554Z,21.70
2019-05-23T06:43:08.589Z,17.47
2019-05-23T06:45:40.612Z,21.60
2019-05-23T06:48:10.722Z,20.27
2019-05-23T06:50:39.474Z,23.53
2019-05-23T06:53:08.873Z,19.85
2019-05-23T06:55:37.398Z,19.40
2019-05-23T06:58:06.955Z,20.23
2019-05-23T07:00:35.666Z,19.67
2019-05-23T07:03:06.007Z,20.77
2019-05-23T07:05:36.781Z,20.47
2019-05-23T07:08:06.797Z,21.13
2019-05-23T07:10:35.580Z,18.57
2019-05-23T07:13:04.384Z,22.57
2019-05-23T07:15:33.006Z,20.17
2019-05-23T07:18:02.151Z,18.23
2019-05-23T07:20:31.340Z,18.90
2019-05-23T07:23:00.266Z,22.97
2019-05-23T07:25:29.559Z,17.40
2019-05-23T07:27:59.574Z,17.70
2019-05-23T07:30:28.252Z,19.33
2019-05-23T07:32:57.209Z,13.53
2019-05-23T07:35:26.317Z,14.70
2019-05-23T07:37:54.960Z,19.87
2019-05-23T07:40:26.304Z,17.23
2019-05-23T07:42:55.037Z,16.43
2019-05-23T07:45:41.411Z,15.00
2019-05-23T07:48:11.054Z,13.77
2019-05-23T07:50:39.635Z,15.50
2019-05-23T07:53:09.677Z,16.27
2019-05-23T07:55:39.859Z,16.33
2019-05-23T07:58:12.911Z,13.37
2019-05-23T08:00:41.242Z,13.57
2019-05-23T08:03:10.291Z,12.50
2019-05-23T08:05:39.222Z,10.70
2019-05-23T08:08:07.944Z,11.40
2019-05-23T08:10:36.844Z,16.83
2019-05-23T08:13:05.490Z,12.90
2019-05-23T08:15:34.798Z,11.17
2019-05-23T08:18:03.906Z,8.67
2019-05-23T08:20:32.475Z,11.63
2019-05-23T08:23:01.020Z,13.20
2019-05-23T08:25:29.629Z,9.97
2019-05-23T08:27:58.425Z,11.57
2019-05-23T08:30:27.173Z,11.63
2019-05-23T08:32:55.792Z,7.87
2019-05-23T08:35:24.538Z,11.40
2019-05-23T08:37:54.834Z,10.23
2019-05-23T08:40:25.326Z,9.97
2019-05-23T08:42:54.092Z,9.90
2019-05-23T08:45:23.079Z,8.87
2019-05-23T08:47:51.749Z,12.50
2019-05-23T08:50:22.207Z,11.70
2019-05-23T08:52:50.869Z,11.07
2019-05-23T08:55:21.781Z,13.60
2019-05-23T08:57:50.791Z,11.30
2019-05-23T09:00:20.705Z,9.73
2019-05-23T09:02:51.264Z,11.53
2019-05-23T09:05:21.416Z,10.67
2019-05-23T09:07:50.651Z,8.67
2019-05-23T09:10:20.201Z,11.53
2019-05-23T09:12:48.780Z,7.30
2019-05-23T09:15:17.413Z,6.53
2019-05-23T09:17:53.047Z,10.80
2019-05-23T09:20:16.738Z,9.90
2019-05-23T09:22:45.624Z,9.30
2019-05-23T09:25:14.741Z,8.80
2019-05-23T09:27:43.243Z,8.73
2019-05-23T09:30:13.271Z,7.43
2019-05-23T09:32:41.838Z,6.57
2019-05-23T09:35:20.840Z,8.10
2019-05-23T09:37:43.309Z,14.37
2019-05-23T09:40:12.609Z,7.20
2019-05-23T09:42:41.183Z,5.97
2019-05-23T09:45:10.174Z,6.67
2019-05-23T09:47:38.879Z,8.57
2019-05-23T09:50:11.822Z,7.57
2019-05-23T09:52:40.423Z,6.23
2019-05-23T09:55:09.142Z,7.10
2019-05-23T09:57:37.792Z,7.03
2019-05-23T10:00:09.208Z,6.20
2019-05-23T10:02:37.881Z,10.90
2019-05-23T10:05:12.126Z,11.87
2019-05-23T10:07:40.957Z,10.50
2019-05-23T10:10:10.612Z,8.13
2019-05-23T10:12:39.258Z,7.97
2019-05-23T10:15:12.759Z,8.47
2019-05-23T10:17:41.503Z,9.60
2019-05-23T10:20:10.691Z,8.43
2019-05-23T10:22:39.234Z,8.97
2019-05-23T10:25:08.899Z,11.77
2019-05-23T10:27:37.410Z,8.67
2019-05-23T10:30:09.629Z,7.40
2019-05-23T10:32:38.187Z,7.00
2019-05-23T10:35:08.112Z,9.70
2019-05-23T10:37:38.294Z,6.83
2019-05-23T10:40:08.628Z,7.37
2019-05-23T10:42:37.737Z,11.07
2019-05-23T10:45:07.361Z,9.03
2019-05-23T10:47:36.083Z,9.00
2019-05-23T10:50:08.876Z,5.97
2019-05-23T10:52:37.385Z,8.10
2019-05-23T10:55:06.411Z,6.73
2019-05-23T10:57:35.127Z,8.27
2019-05-23T11:00:06.164Z,6.20
2019-05-23T11:02:36.605Z,7.30
2019-05-23T11:05:13.507Z,6.63
2019-05-23T11:07:43.863Z,6.73
2019-05-23T11:10:15.341Z,7.90
2019-05-23T11:12:44.726Z,5.67
2019-05-23T11:15:13.748Z,10.33
2019-05-23T11:17:42.848Z,5.67
2019-05-23T11:20:13.344Z,5.10
2019-05-23T11:22:42.466Z,6.40
2019-05-23T11:25:13.188Z,5.73
2019-05-23T11:27:41.837Z,8.20
2019-05-23T11:30:12.806Z,5.33
2019-05-23T11:32:42.488Z,5.97
2019-05-23T11:35:11.175Z,7.50
2019-05-23T11:37:42.128Z,5.50
2019-05-23T11:40:11.642Z,6.60
2019-05-23T11:42:40.202Z,8.90
2019-05-23T11:45:09.288Z,6.27
2019-05-23T11:47:37.902Z,4.53
2019-05-23T11:50:09.484Z,5.70
2019-05-23T11:52:38.074Z,6.23
2019-05-23T11:55:07.590Z,6.80
2019-05-23T11:57:37.764Z,6.43
2019-05-23T12:00:09.576Z,8.43
2019-05-23T12:02:46.428Z,5.33
2019-05-23T12:05:17.231Z,9.87
2019-05-23T12:07:45.818Z,5.20
2019-05-23T12:10:15.195Z,4.83
2019-05-23T12:12:43.916Z,4.87
2019-05-23T12:15:15.179Z,6.33
2019-05-23T12:17:44.132Z,5.57
2019-05-23T12:20:13.486Z,5.23
2019-05-23T12:22:42.535Z,5.80
2019-05-23T12:25:22.093Z,7.53
2019-05-23T12:27:42.517Z,5.43
2019-05-23T12:30:14.215Z,6.37
2019-05-23T12:32:42.941Z,7.30
2019-05-23T12:35:12.275Z,6.43
2019-05-23T12:37:41.426Z,5.63
2019-05-23T12:40:12.543Z,5.97
2019-05-23T12:42:41.090Z,4.50
2019-05-23T12:45:10.878Z,6.47
2019-05-23T12:47:46.984Z,7.17
2019-05-23T12:50:17.646Z,4.50
2019-05-23T12:52:46.200Z,8.77
2019-05-23T12:55:15.726Z,7.03
2019-05-23T12:57:44.448Z,7.00
2019-05-23T13:00:15.716Z,5.80
2019-05-23T13:02:44.263Z,5.07
2019-05-23T13:05:13.013Z,5.97
2019-05-23T13:07:41.845Z,5.37
2019-05-23T13:10:10.846Z,7.83
2019-05-23T13:12:41.174Z,7.30
2019-05-23T13:15:09.884Z,5.60
2019-05-23T13:17:38.514Z,5.83
2019-05-23T13:20:08.218Z,5.63
2019-05-23T13:22:36.945Z,5.67
2019-05-23T13:25:09.093Z,7.73
2019-05-23T13:27:37.856Z,5.83
2019-05-23T13:30:08.127Z,5.73
2019-05-23T13:32:37.310Z,9.73
2019-05-23T13:35:09.586Z,6.07
2019-05-23T13:37:52.251Z,5.90
2019-05-23T13:40:10.155Z,5.13
2019-05-23T13:42:38.872Z,6.73
2019-05-23T13:45:08.436Z,9.87
2019-05-23T13:47:37.003Z,10.07
2019-05-23T13:50:08.840Z,10.37
2019-05-23T13:52:37.898Z,7.77
2019-05-23T13:55:07.516Z,7.73
2019-05-23T13:57:37.102Z,8.30
2019-05-23T14:00:07.413Z,8.67
2019-05-23T14:02:36.816Z,7.60
2019-05-23T14:05:09.250Z,8.23
2019-05-23T14:07:38.532Z,8.87
2019-05-23T14:10:08.407Z,5.67
2019-05-23T14:12:36.967Z,6.80
2019-05-23T14:15:11.241Z,8.53
2019-05-23T14:17:46.947Z,7.63
2019-05-23T14:20:15.931Z,9.50
2019-05-23T14:22:53.301Z,9.60
2019-05-23T14:25:21.932Z,10.00
2019-05-23T14:27:54.800Z,13.77
2019-05-23T14:30:34.727Z,9.13
2019-05-23T14:33:04.988Z,9.60
2019-05-23T14:35:35.104Z,8.47
2019-05-23T14:38:05.895Z,10.83
2019-05-23T14:40:34.382Z,10.00
2019-05-23T14:43:13.727Z,11.30
2019-05-23T14:45:50.138Z,9.67
2019-05-23T14:48:26.141Z,8.90
2019-05-23T14:50:59.240Z,6.63
2019-05-23T14:53:32.129Z,5.70
2019-05-23T14:56:00.688Z,8.03
2019-05-23T14:58:29.460Z,11.40
2019-05-23T15:00:58.879Z,8.07
2019-05-23T15:03:29.097Z,5.00
2019-05-23T15:05:58.188Z,5.53
2019-05-23T15:08:26.928Z,3.03
2019-05-23T15:10:55.574Z,3.40
2019-05-23T15:13:24.159Z,4.17
2019-05-23T15:15:54.339Z,6.10
2019-05-23T15:18:22.853Z,2.77
2019-05-23T15:20:51.348Z,3.63
2019-05-23T15:23:20.253Z,4.90
2019-05-23T15:25:48.773Z,4.60
2019-05-23T15:28:17.416Z,4.37
2019-05-23T15:30:46.078Z,4.93
2019-05-23T15:33:14.642Z,3.63
2019-05-23T15:35:43.190Z,5.00
2019-05-23T15:38:11.762Z,4.30
2019-05-23T15:40:40.300Z,3.50
2019-05-23T15:43:10.004Z,3.80
2019-05-23T15:45:38.912Z,4.37
2019-05-23T15:48:07.551Z,4.27
2019-05-23T15:50:37.929Z,5.37
2019-05-23T15:53:08.157Z,4.70
2019-05-23T15:55:41.016Z,4.70
2019-05-23T15:58:23.271Z,7.23
2019-05-23T16:01:05.917Z,4.73
2019-05-23T16:03:42.722Z,4.97
2019-05-23T16:06:13.574Z,6.83
2019-05-23T16:08:42.531Z,3.73
2019-05-23T16:11:11.414Z,3.73
2019-05-23T16:13:40.069Z,4.80
2019-05-23T16:16:08.683Z,5.10
2019-05-23T16:18:37.416Z,3.20
2019-05-23T16:21:06.162Z,3.67
2019-05-23T16:23:34.659Z,3.83
2019-05-23T16:26:03.138Z,3.13
2019-05-23T16:28:31.852Z,3.83
2019-05-23T16:31:00.454Z,4.10
2019-05-23T16:33:28.968Z,4.90
2019-05-23T16:35:57.709Z,4.33
2019-05-23T16:38:26.273Z,6.50
2019-05-23T16:40:54.971Z,3.60
2019-05-23T16:43:23.676Z,4.20
2019-05-23T16:45:52.262Z,7.03
2019-05-23T16:48:20.794Z,4.97
2019-05-23T16:50:49.357Z,6.10
2019-05-23T16:53:17.854Z,8.57
2019-05-23T16:55:47.956Z,5.00
2019-05-23T16:58:18.257Z,3.53
2019-05-23T17:00:48.811Z,8.33
2019-05-23T17:03:19.076Z,3.60
2019-05-23T17:05:49.344Z,4.30
2019-05-23T17:08:34.594Z,3.97
2019-05-23T17:11:04.856Z,5.10
2019-05-23T17:13:41.172Z,4.87
2019-05-23T17:16:11.527Z,5.17
2019-05-23T17:18:41.744Z,5.50
2019-05-23T17:21:28.269Z,3.93
2019-05-23T17:23:58.541Z,5.17
2019-05-23T17:26:29.187Z,3.63
2019-05-23T17:28:59.447Z,5.47
2019-05-23T17:31:32.574Z,3.47
2019-05-23T17:34:01.173Z,4.70
2019-05-23T17:36:29.668Z,4.20
2019-05-23T17:38:58.220Z,4.93
2019-05-23T17:41:26.908Z,3.03
2019-05-23T17:43:55.550Z,5.17
2019-05-23T17:46:24.085Z,3.83
2019-05-23T17:48:52.640Z,4.50
2019-05-23T17:51:21.291Z,3.40
2019-05-23T17:53:50.392Z,3.83
2019-05-23T17:56:19.011Z,3.20
2019-05-23T17:58:47.712Z,6.90
2019-05-23T18:01:16.300Z,6.30
2019-05-23T18:03:44.848Z,3.57
2019-05-23T18:06:13.894Z,5.80
2019-05-23T18:08:42.756Z,4.23
2019-05-23T18:11:11.302Z,4.00
2019-05-23T18:13:40.489Z,4.80
2019-05-23T18:16:09.166Z,4.47
2019-05-23T18:18:37.694Z,4.43
2019-05-23T18:21:06.388Z,6.03
2019-05-23T18:23:35.277Z,3.80
2019-05-23T18:26:05.249Z,4.90
2019-05-23T18:28:34.098Z,3.10
2019-05-23T18:31:08.438Z,4.50
2019-05-23T18:33:34.937Z,6.50
2019-05-23T18:36:03.889Z,4.00
2019-05-23T18:38:32.674Z,3.87
2019-05-23T18:41:05.598Z,4.30
2019-05-23T18:43:33.072Z,3.43
2019-05-23T18:46:05.733Z,3.63
2019-05-23T18:48:34.498Z,3.13
2019-05-23T18:51:03.298Z,3.87
2019-05-23T18:53:32.036Z,3.67
2019-05-23T18:56:00.713Z,3.50
2019-05-23T18:58:29.274Z,5.57
2019-05-23T19:01:01.964Z,3.27
2019-05-23T19:03:31.312Z,3.83
2019-05-23T19:06:00.369Z,4.47
2019-05-23T19:08:29.322Z,2.53
2019-05-23T19:10:59.225Z,2.97
2019-05-23T19:13:27.759Z,3.93
2019-05-23T19:15:56.771Z,5.00
2019-05-23T19:18:26.130Z,4.57
2019-05-23T19:20:55.861Z,2.93
2019-05-23T19:23:25.359Z,4.23
2019-05-23T19:25:54.886Z,4.20
2019-05-23T19:28:24.637Z,4.70
2019-05-23T19:30:54.542Z,2.63
2019-05-23T19:33:25.051Z,3.00
2019-05-23T19:35:53.951Z,4.37
2019-05-23T19:38:23.353Z,2.80
2019-05-23T19:40:52.431Z,6.87
2019-05-23T19:43:22.379Z,3.37
2019-05-23T19:45:51.736Z,3.70
2019-05-23T19:48:21.278Z,5.00
2019-05-23T19:50:50.507Z,3.90
2019-05-23T19:53:19.066Z,4.00
2019-05-23T19:55:48.064Z,2.33
2019-05-23T19:58:16.781Z,6.10
2019-05-23T20:00:47.375Z,4.07
2019-05-23T20:03:16.203Z,4.00
2019-05-23T20:05:49.239Z,3.27
2019-05-23T20:08:17.907Z,4.10
2019-05-23T20:10:46.597Z,2.50
2019-05-23T20:13:18.380Z,2.67
2019-05-23T20:15:46.237Z,5.27
2019-05-23T20:18:16.075Z,4.57
2019-05-23T20:20:44.743Z,2.87
2019-05-23T20:23:16.153Z,4.50
2019-05-23T20:25:45.170Z,3.60
2019-05-23T20:28:13.815Z,4.47
2019-05-23T20:30:45.905Z,3.73
2019-05-23T20:33:15.462Z,5.43
2019-05-23T20:35:44.074Z,4.50
2019-05-23T20:38:14.042Z,4.80
2019-05-23T20:40:42.733Z,3.67
2019-05-23T20:43:11.359Z,5.47
2019-05-23T20:45:40.366Z,6.80
2019-05-23T20:48:09.689Z,4.10
2019-05-23T20:50:38.230Z,6.90
2019-05-23T20:53:06.931Z,4.90
2019-05-23T20:55:35.768Z,5.10
2019-05-23T20:58:05.362Z,6.10
2019-05-23T21:00:35.849Z,5.10
2019-05-23T21:03:05.055Z,4.50
2019-05-23T21:05:33.560Z,6.23
2019-05-23T21:08:02.182Z,5.93
2019-05-23T21:10:48.193Z,3.60
2019-05-23T21:13:17.792Z,4.27
2019-05-23T21:15:47.298Z,4.20
2019-05-23T21:18:15.917Z,4.70
2019-05-23T21:20:44.463Z,4.00
2019-05-23T21:23:13.284Z,7.27
2019-05-23T21:25:43.573Z,4.13
2019-05-23T21:28:12.141Z,3.70
2019-05-23T21:30:40.709Z,6.60
2019-05-23T21:33:09.401Z,6.60
2019-05-23T21:35:37.968Z,4.93
2019-05-23T21:38:06.534Z,3.90
2019-05-23T21:40:38.066Z,5.47
2019-05-23T21:43:06.831Z,6.33
2019-05-23T21:45:35.386Z,3.80
2019-05-23T21:48:04.376Z,4.50
2019-05-23T21:50:33.155Z,5.03
2019-05-23T21:53:02.275Z,5.70
2019-05-23T21:55:36.480Z,6.53
2019-05-23T21:58:05.908Z,6.37
2019-05-23T22:01:00.315Z,3.80
2019-05-23T22:03:30.612Z,3.73
2019-05-23T22:05:59.138Z,5.23
2019-05-23T22:08:28.198Z,3.93
2019-05-23T22:10:56.733Z,4.60
2019-05-23T22:13:25.293Z,5.53
2019-05-23T22:15:55.748Z,4.40
2019-05-23T22:18:25.016Z,4.70
2019-05-23T22:20:53.516Z,4.27
2019-05-23T22:23:22.103Z,7.03
2019-05-23T22:25:50.847Z,5.67
2019-05-23T22:28:19.382Z,6.47
2019-05-23T22:30:48.015Z,4.97
2019-05-23T22:33:18.513Z,5.83
2019-05-23T22:35:47.180Z,4.20
2019-05-23T22:38:15.729Z,4.00
2019-05-23T22:40:44.209Z,4.27
2019-05-23T22:43:20.602Z,4.80
2019-05-23T22:45:43.038Z,5.60
2019-05-23T22:48:11.525Z,4.90
2019-05-23T22:50:40.161Z,4.47
2019-05-23T22:53:08.690Z,6.07
2019-05-23T22:55:37.223Z,5.17
2019-05-23T22:58:06.517Z,5.23
2019-05-23T23:00:39.372Z,5.50
2019-05-23T23:03:07.936Z,5.43
2019-05-23T23:05:36.549Z,4.57
2019-05-23T23:08:05.516Z,5.17
2019-05-23T23:10:34.063Z,5.63
2019-05-23T23:13:02.524Z,6.13
2019-05-23T23:15:31.983Z,5.00
2019-05-23T23:18:00.516Z,5.37
2019-05-23T23:20:29.085Z,7.87
2019-05-23T23:22:57.693Z,7.53
2019-05-23T23:25:26.329Z,6.53
2019-05-23T23:27:54.794Z,6.13
2019-05-23T23:30:24.983Z,5.80
2019-05-23T23:32:53.487Z,5.50
2019-05-23T23:35:21.959Z,5.77
2019-05-23T23:37:50.437Z,5.80
2019-05-23T23:40:19.186Z,7.47
2019-05-23T23:42:47.690Z,5.90
2019-05-23T23:45:33.990Z,7.57
2019-05-23T23:48:20.348Z,6.53
2019-05-23T23:51:07.069Z,6.33
2019-05-23T23:53:53.629Z,5.93
2019-05-23T23:56:39.975Z,6.07
2019-05-23T23:59:07.878Z,6.80
